Pagina principale
METAR-TAF:

METAR-TAF

Aeroporti :

Sam Mbakwe Airport

Owerri, Nigeria

latitudine: 5-25-35N, longitudine: 7-12-20E, altezza: 114 m

METAR: mancante

Ora: 20:49 (19:49 UTC)

Previsione

Il bollettino è stato emesso 14 ore e 49 minuti fa, alle 05:00 UTC
Previsione valida dal 10 alle 06 UTC al 11 alle 12 UTC
Vento kt da nord
Visibilità: 6000 m
Poco nuvoloso ad un'altezza di 900 ft
Temporaneamente
dal 10 alle 06 UTC al 10 alle 08 UTC
Visibilità: 5000 m
foschia
Evoluzione graduale
dal 10 alle 09 UTC al 10 alle 11 UTC
Vento 10 kt da sud-ovest
Nuvoloso ad un'altezza di 1200 ft

TAF: DNIM 100500Z 1006/1112 00000KT 6000 FEW009 TEMPO 1006/1008 5000 BR BECMG 1009/1011 22010KT BKN012

Osservazioni e previsioni meteorologiche di più di 4000 aeroporti (messaggi METAR e TAF).

Le stazioni disponibili sono rappresentate dai dischi gialli e rossi sulla carta.

Puntare il mouse per vedere il nome della stazione.

Clicca sopra per visualizzare le osservazioni e previsioni meteorologiche.

Per cambiare la mappa : fare clic sui pulsanti verdi con una croce nera per ingrandire, il pulsante verde con un trattino per diminuire, o sulla freccia verde per le mappe adiacenti.


METAR-TAF: